sensor_id;sensor_type;location;lat;lon;timestamp;pressure;altitude;pressure_sealevel;temperature;humidity
72226;BME280;60130;52.250;5.048;2022-12-18T00:00:00;1027.6;;;-2.4;91.3
72226;BME280;60130;52.250;5.048;2022-12-18T00:05:00;1027.6;;;-2.3;91.4
72226;BME280;60130;52.250;5.048;2022-12-18T00:10:00;1027.5;;;-2.3;91.5
72226;BME280;60130;52.250;5.048;2022-12-18T00:15:00;1027.5;;;-2.4;91.5
72226;BME280;60130;52.250;5.048;2022-12-18T00:20:00;1027.5;;;-2.4;91.9
72226;BME280;60130;52.250;5.048;2022-12-18T00:25:00;1027.5;;;-2.5;92.0
72226;BME280;60130;52.250;5.048;2022-12-18T00:30:00;1027.6;;;-2.5;92.0
72226;BME280;60130;52.250;5.048;2022-12-18T00:35:00;1027.5;;;-2.5;92.0
72226;BME280;60130;52.250;5.048;2022-12-18T00:40:00;1027.4;;;-2.6;92.0
72226;BME280;60130;52.250;5.048;2022-12-18T00:45:00;1027.4;;;-2.7;92.3
72226;BME280;60130;52.250;5.048;2022-12-18T00:50:00;1027.5;;;-2.8;92.3
72226;BME280;60130;52.250;5.048;2022-12-18T00:55:00;1027.5;;;-2.8;92.6
72226;BME280;60130;52.250;5.048;2022-12-18T01:00:00;1027.4;;;-2.6;92.3
72226;BME280;60130;52.250;5.048;2022-12-18T01:05:00;1027.5;;;-2.7;92.1
72226;BME280;60130;52.250;5.048;2022-12-18T01:10:00;1027.6;;;-2.5;91.8
72226;BME280;60130;52.250;5.048;2022-12-18T01:15:00;1027.5;;;-2.7;91.4
72226;BME280;60130;52.250;5.048;2022-12-18T01:20:00;1027.5;;;-2.6;91.5
72226;BME280;60130;52.250;5.048;2022-12-18T01:25:00;1027.4;;;-2.8;91.4
72226;BME280;60130;52.250;5.048;2022-12-18T01:30:00;1027.4;;;-3.0;92.0
72226;BME280;60130;52.250;5.048;2022-12-18T01:35:00;1027.6;;;-2.9;92.1
72226;BME280;60130;52.250;5.048;2022-12-18T01:40:00;1027.5;;;-2.9;92.1
72226;BME280;60130;52.250;5.048;2022-12-18T01:45:04;1027.5;;;-2.9;92.1
72226;BME280;60130;52.250;5.048;2022-12-18T01:50:02;1027.6;;;-2.9;91.9
72226;BME280;60130;52.250;5.048;2022-12-18T01:55:02;1027.8;;;-2.8;91.7
72226;BME280;60130;52.250;5.048;2022-12-18T02:00:04;1027.8;;;-3.0;91.6
72226;BME280;60130;52.250;5.048;2022-12-18T02:05:00;1027.8;;;-3.1;91.9
72226;BME280;60130;52.250;5.048;2022-12-18T02:10:03;1028.1;;;-3.2;92.0
72226;BME280;60130;52.250;5.048;2022-12-18T02:15:06;1028.1;;;-3.1;92.3
72226;BME280;60130;52.250;5.048;2022-12-18T02:20:06;1028.0;;;-3.1;92.2
72226;BME280;60130;52.250;5.048;2022-12-18T02:25:07;1028.1;;;-3.0;92.0
72226;BME280;60130;52.250;5.048;2022-12-18T02:30:01;1027.9;;;-2.9;91.8
72226;BME280;60130;52.250;5.048;2022-12-18T02:35:02;1027.8;;;-2.9;91.3
72226;BME280;60130;52.250;5.048;2022-12-18T02:40:02;1027.7;;;-3.0;91.2
72226;BME280;60130;52.250;5.048;2022-12-18T02:45:00;1027.6;;;-3.3;91.2
72226;BME280;60130;52.250;5.048;2022-12-18T02:50:06;1027.5;;;-3.4;91.6
72226;BME280;60130;52.250;5.048;2022-12-18T02:55:08;1027.5;;;-3.3;91.7
72226;BME280;60130;52.250;5.048;2022-12-18T03:00:03;1027.4;;;-3.4;91.7
72226;BME280;60130;52.250;5.048;2022-12-18T03:05:03;1027.4;;;-3.4;91.6
72226;BME280;60130;52.250;5.048;2022-12-18T03:10:00;1027.4;;;-3.5;91.9
72226;BME280;60130;52.250;5.048;2022-12-18T03:15:03;1027.4;;;-3.5;91.6
72226;BME280;60130;52.250;5.048;2022-12-18T03:20:04;1027.3;;;-3.5;91.5
72226;BME280;60130;52.250;5.048;2022-12-18T03:25:02;1027.3;;;-3.7;91.4
72226;BME280;60130;52.250;5.048;2022-12-18T03:30:03;1027.2;;;-3.7;91.0
72226;BME280;60130;52.250;5.048;2022-12-18T03:35:03;1027.2;;;-3.7;90.5
72226;BME280;60130;52.250;5.048;2022-12-18T03:40:00;1027.1;;;-3.8;90.2
72226;BME280;60130;52.250;5.048;2022-12-18T03:45:05;1027.0;;;-3.8;89.8
72226;BME280;60130;52.250;5.048;2022-12-18T03:50:07;1027.0;;;-3.8;89.6
72226;BME280;60130;52.250;5.048;2022-12-18T03:55:01;1027.0;;;-3.8;89.4
72226;BME280;60130;52.250;5.048;2022-12-18T04:00:04;1026.9;;;-3.9;89.3
72226;BME280;60130;52.250;5.048;2022-12-18T04:05:02;1026.9;;;-4.1;89.1
72226;BME280;60130;52.250;5.048;2022-12-18T04:10:01;1026.7;;;-4.2;89.5
72226;BME280;60130;52.250;5.048;2022-12-18T04:15:00;1026.6;;;-4.3;89.6
72226;BME280;60130;52.250;5.048;2022-12-18T04:20:00;1026.7;;;-4.3;89.0
72226;BME280;60130;52.250;5.048;2022-12-18T04:25:00;1026.6;;;-4.5;88.7
72226;BME280;60130;52.250;5.048;2022-12-18T04:30:00;1026.8;;;-4.6;88.8
72226;BME280;60130;52.250;5.048;2022-12-18T04:35:00;1026.8;;;-4.5;88.4
72226;BME280;60130;52.250;5.048;2022-12-18T04:40:00;1027.0;;;-4.5;88.3
72226;BME280;60130;52.250;5.048;2022-12-18T04:45:00;1027.0;;;-4.6;88.1
72226;BME280;60130;52.250;5.048;2022-12-18T04:50:00;1027.1;;;-4.6;88.2
72226;BME280;60130;52.250;5.048;2022-12-18T04:55:00;1027.1;;;-4.6;87.9
72226;BME280;60130;52.250;5.048;2022-12-18T05:00:00;1027.2;;;-4.6;87.7
72226;BME280;60130;52.250;5.048;2022-12-18T05:05:00;1027.3;;;-4.6;86.9
72226;BME280;60130;52.250;5.048;2022-12-18T05:10:00;1027.3;;;-4.7;87.5
72226;BME280;60130;52.250;5.048;2022-12-18T05:15:03;1027.3;;;-4.9;87.3
72226;BME280;60130;52.250;5.048;2022-12-18T05:20:00;1027.2;;;-5.0;87.5
72226;BME280;60130;52.250;5.048;2022-12-18T05:25:00;1027.4;;;-5.1;87.4
72226;BME280;60130;52.250;5.048;2022-12-18T05:30:00;1027.5;;;-5.2;88.1
72226;BME280;60130;52.250;5.048;2022-12-18T05:35:00;1027.4;;;-5.2;88.2
72226;BME280;60130;52.250;5.048;2022-12-18T05:40:00;1027.2;;;-5.4;88.2
72226;BME280;60130;52.250;5.048;2022-12-18T05:45:00;1027.2;;;-5.3;88.5
72226;BME280;60130;52.250;5.048;2022-12-18T05:50:00;1027.1;;;-5.3;88.3
72226;BME280;60130;52.250;5.048;2022-12-18T05:55:00;1026.9;;;-5.4;88.3
72226;BME280;60130;52.250;5.048;2022-12-18T06:00:00;1027.0;;;-5.4;88.3
72226;BME280;60130;52.250;5.048;2022-12-18T06:05:00;1027.0;;;-5.5;87.9
72226;BME280;60130;52.250;5.048;2022-12-18T06:10:00;1026.9;;;-5.6;87.7
72226;BME280;60130;52.250;5.048;2022-12-18T06:15:00;1026.8;;;-5.6;88.1
72226;BME280;60130;52.250;5.048;2022-12-18T06:20:00;1026.9;;;-5.5;88.1
72226;BME280;60130;52.250;5.048;2022-12-18T06:25:00;1027.0;;;-5.5;88.0
72226;BME280;60130;52.250;5.048;2022-12-18T06:30:00;1027.0;;;-5.5;87.5
72226;BME280;60130;52.250;5.048;2022-12-18T06:35:00;1026.8;;;-5.4;86.9
72226;BME280;60130;52.250;5.048;2022-12-18T06:40:00;1026.7;;;-5.5;86.6
72226;BME280;60130;52.250;5.048;2022-12-18T06:45:00;1026.5;;;-5.5;86.8
72226;BME280;60130;52.250;5.048;2022-12-18T06:50:00;1026.4;;;-5.5;86.9
72226;BME280;60130;52.250;5.048;2022-12-18T06:55:00;1026.4;;;-5.5;86.7
72226;BME280;60130;52.250;5.048;2022-12-18T07:00:00;1026.3;;;-5.5;87.0
72226;BME280;60130;52.250;5.048;2022-12-18T07:05:00;1026.3;;;-5.6;86.9
72226;BME280;60130;52.250;5.048;2022-12-18T07:10:00;1026.3;;;-5.5;87.2
72226;BME280;60130;52.250;5.048;2022-12-18T07:15:00;1026.3;;;-5.4;87.0
72226;BME280;60130;52.250;5.048;2022-12-18T07:20:00;1026.3;;;-5.5;86.3
72226;BME280;60130;52.250;5.048;2022-12-18T07:25:00;1026.2;;;-5.5;86.7
72226;BME280;60130;52.250;5.048;2022-12-18T07:30:00;1026.2;;;-5.5;86.8
72226;BME280;60130;52.250;5.048;2022-12-18T07:35:00;1026.1;;;-5.5;86.8
72226;BME280;60130;52.250;5.048;2022-12-18T07:40:00;1025.9;;;-5.5;86.7
72226;BME280;60130;52.250;5.048;2022-12-18T07:45:00;1025.8;;;-5.6;86.3
72226;BME280;60130;52.250;5.048;2022-12-18T07:50:00;1025.7;;;-5.6;86.8
72226;BME280;60130;52.250;5.048;2022-12-18T07:55:00;1025.6;;;-5.5;87.1
72226;BME280;60130;52.250;5.048;2022-12-18T08:00:00;1025.6;;;-5.5;87.0
72226;BME280;60130;52.250;5.048;2022-12-18T08:05:00;1025.6;;;-5.4;87.3
72226;BME280;60130;52.250;5.048;2022-12-18T08:10:00;1025.7;;;-5.2;87.4
72226;BME280;60130;52.250;5.048;2022-12-18T08:15:00;1025.7;;;-5.0;87.2
72226;BME280;60130;52.250;5.048;2022-12-18T08:20:00;1025.9;;;-4.9;87.0
72226;BME280;60130;52.250;5.048;2022-12-18T08:25:00;1025.9;;;-4.8;86.8
72226;BME280;60130;52.250;5.048;2022-12-18T08:30:00;1025.9;;;-4.7;86.9
72226;BME280;60130;52.250;5.048;2022-12-18T08:35:00;1026.1;;;-4.6;86.6
72226;BME280;60130;52.250;5.048;2022-12-18T08:40:00;1025.8;;;-4.5;86.5
72226;BME280;60130;52.250;5.048;2022-12-18T08:45:00;1025.7;;;-4.5;86.3
72226;BME280;60130;52.250;5.048;2022-12-18T08:50:00;1025.8;;;-4.4;86.2
72226;BME280;60130;52.250;5.048;2022-12-18T08:55:00;1025.8;;;-4.3;86.4
72226;BME280;60130;52.250;5.048;2022-12-18T09:00:00;1025.6;;;-4.2;86.4
72226;BME280;60130;52.250;5.048;2022-12-18T09:05:00;1025.6;;;-4.1;86.3
72226;BME280;60130;52.250;5.048;2022-12-18T09:10:00;1025.8;;;-4.0;86.1
72226;BME280;60130;52.250;5.048;2022-12-18T09:15:00;1025.9;;;-3.8;85.8
72226;BME280;60130;52.250;5.048;2022-12-18T09:20:00;1025.7;;;-3.7;85.9
72226;BME280;60130;52.250;5.048;2022-12-18T09:25:00;1025.8;;;-3.6;85.8
72226;BME280;60130;52.250;5.048;2022-12-18T09:30:00;1025.7;;;-3.5;85.7
72226;BME280;60130;52.250;5.048;2022-12-18T09:35:00;1025.6;;;-3.4;85.8
72226;BME280;60130;52.250;5.048;2022-12-18T09:40:00;1025.6;;;-3.3;85.9
72226;BME280;60130;52.250;5.048;2022-12-18T09:45:00;1025.6;;;-3.2;85.7
72226;BME280;60130;52.250;5.048;2022-12-18T09:50:02;1025.5;;;-3.1;85.7
72226;BME280;60130;52.250;5.048;2022-12-18T09:55:03;1025.3;;;-2.9;85.8
72226;BME280;60130;52.250;5.048;2022-12-18T10:00:04;1025.1;;;-2.8;85.7
72226;BME280;60130;52.250;5.048;2022-12-18T10:05:06;1025.2;;;-2.7;85.7
72226;BME280;60130;52.250;5.048;2022-12-18T10:10:04;1025.4;;;-2.7;85.2
72226;BME280;60130;52.250;5.048;2022-12-18T10:15:05;1025.6;;;-2.5;85.3
72226;BME280;60130;52.250;5.048;2022-12-18T10:20:03;1025.3;;;-2.5;85.1
72226;BME280;60130;52.250;5.048;2022-12-18T10:25:04;1025.3;;;-2.4;85.0
72226;BME280;60130;52.250;5.048;2022-12-18T10:30:01;1025.3;;;-2.2;85.1
72226;BME280;60130;52.250;5.048;2022-12-18T10:35:00;1025.2;;;-2.1;85.1
72226;BME280;60130;52.250;5.048;2022-12-18T10:40:11;1025.1;;;-2.0;84.8
72226;BME280;60130;52.250;5.048;2022-12-18T10:45:02;1025.2;;;-1.9;84.8
72226;BME280;60130;52.250;5.048;2022-12-18T10:50:00;1025.1;;;-1.7;84.4
72226;BME280;60130;52.250;5.048;2022-12-18T10:55:03;1024.9;;;-1.7;83.9
72226;BME280;60130;52.250;5.048;2022-12-18T11:00:20;1024.8;;;-1.7;83.8
72226;BME280;60130;52.250;5.048;2022-12-18T11:05:00;1024.7;;;-1.5;83.8
72226;BME280;60130;52.250;5.048;2022-12-18T11:10:01;1024.7;;;-1.4;83.7
72226;BME280;60130;52.250;5.048;2022-12-18T11:15:00;1024.6;;;-1.3;83.1
72226;BME280;60130;52.250;5.048;2022-12-18T11:20:01;1024.6;;;-1.2;83.2
72226;BME280;60130;52.250;5.048;2022-12-18T11:25:02;1024.6;;;-1.1;82.8
72226;BME280;60130;52.250;5.048;2022-12-18T11:30:08;1024.6;;;-1.0;82.5
72226;BME280;60130;52.250;5.048;2022-12-18T11:35:04;1024.7;;;-0.9;82.6
72226;BME280;60130;52.250;5.048;2022-12-18T11:40:03;1024.6;;;-0.8;82.8
72226;BME280;60130;52.250;5.048;2022-12-18T11:45:03;1024.5;;;-0.7;82.0
72226;BME280;60130;52.250;5.048;2022-12-18T11:50:01;1024.4;;;-0.7;81.4
72226;BME280;60130;52.250;5.048;2022-12-18T11:55:01;1024.1;;;-0.7;81.6
72226;BME280;60130;52.250;5.048;2022-12-18T12:00:04;1024.0;;;-0.7;81.1
72226;BME280;60130;52.250;5.048;2022-12-18T12:05:05;1023.9;;;-0.7;81.4
72226;BME280;60130;52.250;5.048;2022-12-18T12:10:07;1023.9;;;-0.7;81.2
72226;BME280;60130;52.250;5.048;2022-12-18T12:15:05;1023.8;;;-0.5;81.1
72226;BME280;60130;52.250;5.048;2022-12-18T12:20:06;1023.8;;;-0.5;81.1
72226;BME280;60130;52.250;5.048;2022-12-18T12:25:12;1023.7;;;-0.4;80.5
72226;BME280;60130;52.250;5.048;2022-12-18T12:30:04;1023.6;;;-0.4;80.3
72226;BME280;60130;52.250;5.048;2022-12-18T12:35:09;1023.6;;;-0.4;80.1
72226;BME280;60130;52.250;5.048;2022-12-18T12:40:01;1023.5;;;-0.3;80.0
72226;BME280;60130;52.250;5.048;2022-12-18T12:45:01;1023.5;;;-0.3;80.2
72226;BME280;60130;52.250;5.048;2022-12-18T12:50:02;1023.3;;;-0.3;79.9
72226;BME280;60130;52.250;5.048;2022-12-18T12:55:01;1023.2;;;-0.3;80.0
72226;BME280;60130;52.250;5.048;2022-12-18T13:00:04;1023.3;;;-0.2;79.7
72226;BME280;60130;52.250;5.048;2022-12-18T13:05:03;1023.2;;;-0.2;79.6
72226;BME280;60130;52.250;5.048;2022-12-18T13:10:12;1023.2;;;-0.2;79.8
72226;BME280;60130;52.250;5.048;2022-12-18T13:15:11;1023.1;;;-0.2;79.6
72226;BME280;60130;52.250;5.048;2022-12-18T13:20:06;1023.0;;;-0.2;79.5
72226;BME280;60130;52.250;5.048;2022-12-18T13:25:00;1023.0;;;-0.2;79.1
72226;BME280;60130;52.250;5.048;2022-12-18T13:30:00;1022.9;;;-0.2;79.3
72226;BME280;60130;52.250;5.048;2022-12-18T13:40:00;1022.6;;;-0.2;79.7
72226;BME280;60130;52.250;5.048;2022-12-18T13:45:00;1022.4;;;-0.2;79.5
72226;BME280;60130;52.250;5.048;2022-12-18T13:50:02;1022.4;;;-0.2;79.3
72226;BME280;60130;52.250;5.048;2022-12-18T13:55:02;1022.4;;;-0.1;79.4
72226;BME280;60130;52.250;5.048;2022-12-18T14:05:00;1022.3;;;-0.1;79.3
72226;BME280;60130;52.250;5.048;2022-12-18T14:10:01;1022.3;;;-0.0;78.8
72226;BME280;60130;52.250;5.048;2022-12-18T14:15:00;1022.3;;;-0.1;78.8
72226;BME280;60130;52.250;5.048;2022-12-18T14:20:00;1022.2;;;-0.1;78.9
72226;BME280;60130;52.250;5.048;2022-12-18T14:25:14;1022.2;;;0.0;79.1
72226;BME280;60130;52.250;5.048;2022-12-18T14:30:00;1022.1;;;0.0;78.8
72226;BME280;60130;52.250;5.048;2022-12-18T14:35:12;1022.0;;;0.0;78.6
72226;BME280;60130;52.250;5.048;2022-12-18T14:40:01;1021.9;;;0.0;78.6
72226;BME280;60130;52.250;5.048;2022-12-18T14:50:00;1021.8;;;0.1;78.5
72226;BME280;60130;52.250;5.048;2022-12-18T14:55:00;1021.8;;;0.0;78.5
72226;BME280;60130;52.250;5.048;2022-12-18T15:00:04;1021.7;;;0.1;78.3
72226;BME280;60130;52.250;5.048;2022-12-18T15:05:01;1021.7;;;0.1;78.5
72226;BME280;60130;52.250;5.048;2022-12-18T15:10:02;1021.7;;;0.1;78.9
72226;BME280;60130;52.250;5.048;2022-12-18T15:15:00;1021.7;;;0.1;78.4
72226;BME280;60130;52.250;5.048;2022-12-18T15:20:02;1021.7;;;0.1;79.0
72226;BME280;60130;52.250;5.048;2022-12-18T15:25:00;1021.6;;;0.1;78.3
72226;BME280;60130;52.250;5.048;2022-12-18T15:35:12;1021.5;;;0.1;78.8
72226;BME280;60130;52.250;5.048;2022-12-18T15:40:00;1021.5;;;0.1;78.5
72226;BME280;60130;52.250;5.048;2022-12-18T15:45:00;1021.3;;;0.1;78.0
72226;BME280;60130;52.250;5.048;2022-12-18T15:50:00;1021.2;;;0.1;78.4
72226;BME280;60130;52.250;5.048;2022-12-18T15:55:00;1021.3;;;0.1;79.0
72226;BME280;60130;52.250;5.048;2022-12-18T16:00:00;1021.1;;;0.1;78.6
72226;BME280;60130;52.250;5.048;2022-12-18T16:05:00;1021.1;;;0.1;78.1
72226;BME280;60130;52.250;5.048;2022-12-18T16:10:00;1021.0;;;0.2;77.9
72226;BME280;60130;52.250;5.048;2022-12-18T16:15:00;1021.0;;;0.3;77.9
72226;BME280;60130;52.250;5.048;2022-12-18T16:20:00;1020.7;;;0.3;77.8
72226;BME280;60130;52.250;5.048;2022-12-18T16:25:00;1020.7;;;0.3;77.3
72226;BME280;60130;52.250;5.048;2022-12-18T16:30:00;1020.7;;;0.3;77.6
72226;BME280;60130;52.250;5.048;2022-12-18T16:35:00;1020.7;;;0.3;77.7
72226;BME280;60130;52.250;5.048;2022-12-18T16:40:00;1020.7;;;0.4;77.3
72226;BME280;60130;52.250;5.048;2022-12-18T16:45:00;1020.6;;;0.3;77.8
72226;BME280;60130;52.250;5.048;2022-12-18T16:50:00;1020.5;;;0.4;77.6
72226;BME280;60130;52.250;5.048;2022-12-18T16:55:00;1020.3;;;0.4;77.7
72226;BME280;60130;52.250;5.048;2022-12-18T17:00:00;1020.4;;;0.3;77.6
72226;BME280;60130;52.250;5.048;2022-12-18T17:05:00;1020.4;;;0.4;77.7
72226;BME280;60130;52.250;5.048;2022-12-18T17:10:00;1020.4;;;0.4;78.0
72226;BME280;60130;52.250;5.048;2022-12-18T17:15:00;1020.4;;;0.4;78.1
72226;BME280;60130;52.250;5.048;2022-12-18T17:20:00;1020.3;;;0.4;78.2
72226;BME280;60130;52.250;5.048;2022-12-18T17:25:00;1020.3;;;0.5;78.2
72226;BME280;60130;52.250;5.048;2022-12-18T17:30:00;1020.3;;;0.4;78.3
72226;BME280;60130;52.250;5.048;2022-12-18T17:35:00;1020.2;;;0.4;78.9
72226;BME280;60130;52.250;5.048;2022-12-18T17:40:00;1020.3;;;0.5;78.7
72226;BME280;60130;52.250;5.048;2022-12-18T17:45:00;1020.4;;;0.5;78.8
72226;BME280;60130;52.250;5.048;2022-12-18T17:50:00;1020.3;;;0.6;78.9
72226;BME280;60130;52.250;5.048;2022-12-18T17:55:00;1020.2;;;0.5;78.8
72226;BME280;60130;52.250;5.048;2022-12-18T18:00:00;1020.2;;;0.6;78.4
72226;BME280;60130;52.250;5.048;2022-12-18T18:05:00;1020.2;;;0.7;78.4
72226;BME280;60130;52.250;5.048;2022-12-18T18:10:00;1020.1;;;0.7;78.5
72226;BME280;60130;52.250;5.048;2022-12-18T18:15:00;1020.1;;;0.6;78.1
72226;BME280;60130;52.250;5.048;2022-12-18T18:20:00;1020.2;;;0.7;78.1
72226;BME280;60130;52.250;5.048;2022-12-18T18:25:00;1020.1;;;0.7;78.4
72226;BME280;60130;52.250;5.048;2022-12-18T18:30:00;1020.1;;;0.7;78.2
72226;BME280;60130;52.250;5.048;2022-12-18T18:35:00;1020.1;;;0.8;78.1
72226;BME280;60130;52.250;5.048;2022-12-18T18:40:00;1020.0;;;0.8;78.6
72226;BME280;60130;52.250;5.048;2022-12-18T18:45:00;1019.9;;;0.8;78.3
72226;BME280;60130;52.250;5.048;2022-12-18T18:50:00;1019.9;;;0.9;78.1
72226;BME280;60130;52.250;5.048;2022-12-18T18:55:00;1019.8;;;1.0;77.8
72226;BME280;60130;52.250;5.048;2022-12-18T19:00:00;1019.8;;;0.9;77.8
72226;BME280;60130;52.250;5.048;2022-12-18T19:05:00;1019.8;;;1.0;77.9
72226;BME280;60130;52.250;5.048;2022-12-18T19:10:00;1019.8;;;0.9;77.9
72226;BME280;60130;52.250;5.048;2022-12-18T19:15:00;1019.9;;;1.0;78.2
72226;BME280;60130;52.250;5.048;2022-12-18T19:20:00;1019.9;;;1.0;78.6
72226;BME280;60130;52.250;5.048;2022-12-18T19:25:00;1019.9;;;1.1;79.7
72226;BME280;60130;52.250;5.048;2022-12-18T19:30:00;1019.9;;;1.0;81.2
72226;BME280;60130;52.250;5.048;2022-12-18T19:35:00;1019.9;;;1.0;82.0
72226;BME280;60130;52.250;5.048;2022-12-18T19:40:00;1019.9;;;1.0;82.6
72226;BME280;60130;52.250;5.048;2022-12-18T19:45:00;1019.9;;;0.9;83.6
72226;BME280;60130;52.250;5.048;2022-12-18T19:50:00;1019.9;;;0.9;84.6
72226;BME280;60130;52.250;5.048;2022-12-18T19:55:00;1019.8;;;0.9;85.0
72226;BME280;60130;52.250;5.048;2022-12-18T20:00:00;1019.7;;;0.9;85.4
72226;BME280;60130;52.250;5.048;2022-12-18T20:05:00;1019.7;;;0.9;86.0
72226;BME280;60130;52.250;5.048;2022-12-18T20:10:00;1019.7;;;0.8;86.5
72226;BME280;60130;52.250;5.048;2022-12-18T20:15:00;1019.8;;;0.9;86.6
72226;BME280;60130;52.250;5.048;2022-12-18T20:20:00;1019.8;;;0.9;87.4
72226;BME280;60130;52.250;5.048;2022-12-18T20:25:00;1019.7;;;0.9;87.3
72226;BME280;60130;52.250;5.048;2022-12-18T20:30:00;1019.6;;;0.9;87.4
72226;BME280;60130;52.250;5.048;2022-12-18T20:35:00;1019.5;;;0.9;88.1
72226;BME280;60130;52.250;5.048;2022-12-18T20:40:00;1019.5;;;1.0;88.1
72226;BME280;60130;52.250;5.048;2022-12-18T20:45:00;1019.4;;;0.9;88.5
72226;BME280;60130;52.250;5.048;2022-12-18T20:50:00;1019.4;;;1.0;88.9
72226;BME280;60130;52.250;5.048;2022-12-18T20:55:04;1019.3;;;1.0;89.2
72226;BME280;60130;52.250;5.048;2022-12-18T21:00:00;1019.1;;;0.9;89.6
72226;BME280;60130;52.250;5.048;2022-12-18T21:05:00;1019.1;;;1.0;89.6
72226;BME280;60130;52.250;5.048;2022-12-18T21:10:04;1018.9;;;0.9;89.9
72226;BME280;60130;52.250;5.048;2022-12-18T21:15:00;1018.9;;;0.9;90.0
72226;BME280;60130;52.250;5.048;2022-12-18T21:20:00;1018.8;;;1.0;90.2
72226;BME280;60130;52.250;5.048;2022-12-18T21:25:00;1018.8;;;1.0;90.5
72226;BME280;60130;52.250;5.048;2022-12-18T21:30:00;1018.8;;;1.0;90.7
72226;BME280;60130;52.250;5.048;2022-12-18T21:35:00;1018.9;;;0.9;91.0
72226;BME280;60130;52.250;5.048;2022-12-18T21:40:00;1018.9;;;1.0;91.3
72226;BME280;60130;52.250;5.048;2022-12-18T21:45:00;1018.7;;;1.0;91.3
72226;BME280;60130;52.250;5.048;2022-12-18T21:50:00;1018.6;;;1.0;91.4
72226;BME280;60130;52.250;5.048;2022-12-18T21:55:00;1018.5;;;1.0;91.7
72226;BME280;60130;52.250;5.048;2022-12-18T22:00:00;1018.5;;;1.0;91.8
72226;BME280;60130;52.250;5.048;2022-12-18T22:05:00;1018.4;;;1.0;91.9
72226;BME280;60130;52.250;5.048;2022-12-18T22:10:00;1018.2;;;1.1;92.0
72226;BME280;60130;52.250;5.048;2022-12-18T22:15:00;1018.0;;;1.0;92.3
72226;BME280;60130;52.250;5.048;2022-12-18T22:20:00;1017.9;;;1.1;92.4
72226;BME280;60130;52.250;5.048;2022-12-18T22:25:00;1017.6;;;1.0;92.4
72226;BME280;60130;52.250;5.048;2022-12-18T22:30:00;1017.6;;;1.0;92.6
72226;BME280;60130;52.250;5.048;2022-12-18T22:35:01;1017.5;;;1.1;92.6
72226;BME280;60130;52.250;5.048;2022-12-18T22:40:00;1017.4;;;1.1;92.7
72226;BME280;60130;52.250;5.048;2022-12-18T22:45:00;1017.3;;;1.1;92.8
72226;BME280;60130;52.250;5.048;2022-12-18T22:50:00;1017.3;;;1.1;93.0
72226;BME280;60130;52.250;5.048;2022-12-18T22:55:00;1017.2;;;1.2;92.9
72226;BME280;60130;52.250;5.048;2022-12-18T23:00:00;1017.1;;;1.2;92.9
72226;BME280;60130;52.250;5.048;2022-12-18T23:05:00;1017.1;;;1.2;92.8
72226;BME280;60130;52.250;5.048;2022-12-18T23:10:00;1017.0;;;1.2;92.9
72226;BME280;60130;52.250;5.048;2022-12-18T23:15:00;1017.1;;;1.3;93.1
72226;BME280;60130;52.250;5.048;2022-12-18T23:20:00;1017.0;;;1.3;93.0
72226;BME280;60130;52.250;5.048;2022-12-18T23:25:00;1016.9;;;1.3;93.1
72226;BME280;60130;52.250;5.048;2022-12-18T23:30:00;1016.9;;;1.4;93.1
72226;BME280;60130;52.250;5.048;2022-12-18T23:35:00;1016.7;;;1.4;93.4
72226;BME280;60130;52.250;5.048;2022-12-18T23:40:00;1016.7;;;1.4;93.7
72226;BME280;60130;52.250;5.048;2022-12-18T23:45:00;1016.6;;;1.5;93.6
72226;BME280;60130;52.250;5.048;2022-12-18T23:50:00;1016.6;;;1.5;93.6
72226;BME280;60130;52.250;5.048;2022-12-18T23:55:01;1016.6;;;1.5;93.8
